sensor_id;sensor_type;location;lat;lon;timestamp;temperature;humidity
49821;DHT22;36893;52.520;13.450;2024-03-23T00:55:50;22.50;75.30
49821;DHT22;36893;52.520;13.450;2024-03-23T01:05:50;22.50;75.20
49821;DHT22;36893;52.520;13.450;2024-03-23T01:15:53;22.50;75.30
49821;DHT22;36893;52.520;13.450;2024-03-23T01:25:54;22.50;75.20
49821;DHT22;36893;52.520;13.450;2024-03-23T01:35:54;22.50;75.20
49821;DHT22;36893;52.520;13.450;2024-03-23T01:45:55;22.50;75.10
49821;DHT22;36893;52.520;13.450;2024-03-23T01:55:56;22.50;75.10
49821;DHT22;36893;52.520;13.450;2024-03-23T02:05:57;22.50;75.10
49821;DHT22;36893;52.520;13.450;2024-03-23T02:15:57;22.50;75.10
49821;DHT22;36893;52.520;13.450;2024-03-23T02:25:58;22.50;75.00
49821;DHT22;36893;52.520;13.450;2024-03-23T02:35:59;22.60;75.10
49821;DHT22;36893;52.520;13.450;2024-03-23T02:45:59;22.60;75.00
49821;DHT22;36893;52.520;13.450;2024-03-23T02:56:01;22.50;74.90
49821;DHT22;36893;52.520;13.450;2024-03-23T03:06:01;22.50;74.90
49821;DHT22;36893;52.520;13.450;2024-03-23T03:16:02;22.60;74.90
49821;DHT22;36893;52.520;13.450;2024-03-23T03:26:03;22.60;74.80
49821;DHT22;36893;52.520;13.450;2024-03-23T03:36:03;22.60;74.60
49821;DHT22;36893;52.520;13.450;2024-03-23T03:46:04;22.60;74.60
49821;DHT22;36893;52.520;13.450;2024-03-23T03:56:05;22.60;74.50
49821;DHT22;36893;52.520;13.450;2024-03-23T04:06:06;22.60;74.40
49821;DHT22;36893;52.520;13.450;2024-03-23T04:16:06;22.60;74.30
49821;DHT22;36893;52.520;13.450;2024-03-23T04:26:06;22.60;74.20
49821;DHT22;36893;52.520;13.450;2024-03-23T04:36:07;22.60;74.10
49821;DHT22;36893;52.520;13.450;2024-03-23T04:46:07;22.60;74.00
49821;DHT22;36893;52.520;13.450;2024-03-23T04:56:08;22.60;73.90
49821;DHT22;36893;52.520;13.450;2024-03-23T05:06:08;22.50;73.80
49821;DHT22;36893;52.520;13.450;2024-03-23T05:16:09;22.60;73.70
49821;DHT22;36893;52.520;13.450;2024-03-23T05:26:10;22.60;73.70
49821;DHT22;36893;52.520;13.450;2024-03-23T05:36:10;22.50;74.20
49821;DHT22;36893;52.520;13.450;2024-03-23T05:46:12;22.60;73.50
49821;DHT22;36893;52.520;13.450;2024-03-23T05:56:12;22.60;73.40
49821;DHT22;36893;52.520;13.450;2024-03-23T06:06:13;22.60;73.40
49821;DHT22;36893;52.520;13.450;2024-03-23T06:16:13;22.50;73.30
49821;DHT22;36893;52.520;13.450;2024-03-23T06:26:14;22.60;73.30
49821;DHT22;36893;52.520;13.450;2024-03-23T06:36:14;22.50;73.20
49821;DHT22;36893;52.520;13.450;2024-03-23T06:46:15;22.60;73.20
49821;DHT22;36893;52.520;13.450;2024-03-23T06:56:15;22.50;73.00
49821;DHT22;36893;52.520;13.450;2024-03-23T07:06:16;22.60;73.00
49821;DHT22;36893;52.520;13.450;2024-03-23T07:16:16;22.60;73.00
49821;DHT22;36893;52.520;13.450;2024-03-23T07:26:17;22.60;72.90
49821;DHT22;36893;52.520;13.450;2024-03-23T07:36:19;22.60;72.80
49821;DHT22;36893;52.520;13.450;2024-03-23T07:46:20;22.50;72.80
49821;DHT22;36893;52.520;13.450;2024-03-23T07:56:21;22.60;72.70
49821;DHT22;36893;52.520;13.450;2024-03-23T08:06:22;22.60;72.60
49821;DHT22;36893;52.520;13.450;2024-03-23T08:16:24;22.60;72.70
49821;DHT22;36893;52.520;13.450;2024-03-23T08:26:24;22.60;72.60
49821;DHT22;36893;52.520;13.450;2024-03-23T08:36:25;22.60;72.50
49821;DHT22;36893;52.520;13.450;2024-03-23T08:46:25;22.60;72.50
49821;DHT22;36893;52.520;13.450;2024-03-23T08:56:26;22.60;72.50
49821;DHT22;36893;52.520;13.450;2024-03-23T09:06:26;22.60;72.40
49821;DHT22;36893;52.520;13.450;2024-03-23T09:16:27;22.50;72.30
49821;DHT22;36893;52.520;13.450;2024-03-23T09:26:27;22.50;72.20
49821;DHT22;36893;52.520;13.450;2024-03-23T09:36:30;22.50;72.20
49821;DHT22;36893;52.520;13.450;2024-03-23T09:46:31;22.50;72.10
49821;DHT22;36893;52.520;13.450;2024-03-23T09:56:34;22.50;72.10
49821;DHT22;36893;52.520;13.450;2024-03-23T10:06:35;22.50;72.10
49821;DHT22;36893;52.520;13.450;2024-03-23T10:16:35;22.40;73.10
49821;DHT22;36893;52.520;13.450;2024-03-23T10:26:35;22.30;74.30
49821;DHT22;36893;52.520;13.450;2024-03-23T10:36:38;22.20;75.10
49821;DHT22;36893;52.520;13.450;2024-03-23T10:46:41;22.10;76.00
49821;DHT22;36893;52.520;13.450;2024-03-23T10:56:41;22.10;76.60
49821;DHT22;36893;52.520;13.450;2024-03-23T11:06:42;22.10;77.30
49821;DHT22;36893;52.520;13.450;2024-03-23T11:16:43;22.00;77.50
49821;DHT22;36893;52.520;13.450;2024-03-23T11:26:43;22.00;77.70
49821;DHT22;36893;52.520;13.450;2024-03-23T11:36:44;22.00;78.20
49821;DHT22;36893;52.520;13.450;2024-03-23T11:46:46;22.00;78.80
49821;DHT22;36893;52.520;13.450;2024-03-23T11:56:57;22.00;79.40
49821;DHT22;36893;52.520;13.450;2024-03-23T12:07:20;22.00;79.80
49821;DHT22;36893;52.520;13.450;2024-03-23T12:17:23;22.00;80.10
49821;DHT22;36893;52.520;13.450;2024-03-23T12:27:24;22.00;80.80
49821;DHT22;36893;52.520;13.450;2024-03-23T12:37:24;21.70;81.80
49821;DHT22;36893;52.520;13.450;2024-03-23T12:47:24;21.50;82.80
49821;DHT22;36893;52.520;13.450;2024-03-23T12:57:25;21.30;83.20
49821;DHT22;36893;52.520;13.450;2024-03-23T13:07:26;20.80;84.10
49821;DHT22;36893;52.520;13.450;2024-03-23T13:17:27;20.70;86.10
49821;DHT22;36893;52.520;13.450;2024-03-23T13:27:27;20.70;87.00
49821;DHT22;36893;52.520;13.450;2024-03-23T13:37:28;20.80;87.40
49821;DHT22;36893;52.520;13.450;2024-03-23T13:47:28;20.70;86.90
49821;DHT22;36893;52.520;13.450;2024-03-23T13:57:29;20.40;87.60
49821;DHT22;36893;52.520;13.450;2024-03-23T14:07:29;20.10;88.60
49821;DHT22;36893;52.520;13.450;2024-03-23T14:17:29;20.10;90.00
49821;DHT22;36893;52.520;13.450;2024-03-23T14:27:30;20.40;90.20
49821;DHT22;36893;52.520;13.450;2024-03-23T14:37:30;20.60;90.30
49821;DHT22;36893;52.520;13.450;2024-03-23T14:47:31;20.80;90.30
49821;DHT22;36893;52.520;13.450;2024-03-23T14:57:32;20.90;90.30
49821;DHT22;36893;52.520;13.450;2024-03-23T15:07:33;20.90;90.30
49821;DHT22;36893;52.520;13.450;2024-03-23T15:17:34;21.00;90.30
49821;DHT22;36893;52.520;13.450;2024-03-23T15:27:37;21.00;90.30
49821;DHT22;36893;52.520;13.450;2024-03-23T15:37:37;21.00;90.30
49821;DHT22;36893;52.520;13.450;2024-03-23T15:47:39;21.10;90.50
49821;DHT22;36893;52.520;13.450;2024-03-23T15:57:40;21.10;90.40
49821;DHT22;36893;52.520;13.450;2024-03-23T16:07:40;21.10;90.50
49821;DHT22;36893;52.520;13.450;2024-03-23T16:17:41;21.10;90.40
49821;DHT22;36893;52.520;13.450;2024-03-23T16:27:41;21.10;90.50
49821;DHT22;36893;52.520;13.450;2024-03-23T16:37:42;21.10;90.50
49821;DHT22;36893;52.520;13.450;2024-03-23T16:47:42;21.20;90.50
49821;DHT22;36893;52.520;13.450;2024-03-23T16:57:45;21.10;90.50
49821;DHT22;36893;52.520;13.450;2024-03-23T17:07:45;21.10;90.50
49821;DHT22;36893;52.520;13.450;2024-03-23T17:17:46;21.10;90.50
49821;DHT22;36893;52.520;13.450;2024-03-23T17:27:46;21.10;90.50
49821;DHT22;36893;52.520;13.450;2024-03-23T17:37:47;21.10;90.50
49821;DHT22;36893;52.520;13.450;2024-03-23T17:47:47;21.10;90.50
49821;DHT22;36893;52.520;13.450;2024-03-23T17:57:48;21.10;90.50
49821;DHT22;36893;52.520;13.450;2024-03-23T18:07:48;21.10;90.50
49821;DHT22;36893;52.520;13.450;2024-03-23T18:17:49;21.10;90.50
49821;DHT22;36893;52.520;13.450;2024-03-23T18:27:52;21.10;90.40
49821;DHT22;36893;52.520;13.450;2024-03-23T18:37:53;21.10;90.40
49821;DHT22;36893;52.520;13.450;2024-03-23T18:47:54;21.10;90.30
49821;DHT22;36893;52.520;13.450;2024-03-23T18:57:55;21.10;90.30
49821;DHT22;36893;52.520;13.450;2024-03-23T19:07:57;21.10;90.20
49821;DHT22;36893;52.520;13.450;2024-03-23T19:39:12;21.20;90.10
49821;DHT22;36893;52.520;13.450;2024-03-23T19:49:12;21.20;90.00
49821;DHT22;36893;52.520;13.450;2024-03-23T19:59:13;21.20;89.90
49821;DHT22;36893;52.520;13.450;2024-03-23T20:09:13;21.20;89.70
49821;DHT22;36893;52.520;13.450;2024-03-23T20:19:14;21.20;89.60
49821;DHT22;36893;52.520;13.450;2024-03-23T20:29:15;21.20;89.30
49821;DHT22;36893;52.520;13.450;2024-03-23T20:39:16;21.20;89.20
49821;DHT22;36893;52.520;13.450;2024-03-23T20:49:16;21.30;89.00
49821;DHT22;36893;52.520;13.450;2024-03-23T20:59:18;21.30;88.90
49821;DHT22;36893;52.520;13.450;2024-03-23T21:09:18;21.30;88.60
49821;DHT22;36893;52.520;13.450;2024-03-23T21:19:21;21.30;88.40
49821;DHT22;36893;52.520;13.450;2024-03-23T21:29:22;21.30;88.30
49821;DHT22;36893;52.520;13.450;2024-03-23T21:39:22;21.30;88.00
49821;DHT22;36893;52.520;13.450;2024-03-23T21:49:23;21.30;87.80
49821;DHT22;36893;52.520;13.450;2024-03-23T21:59:25;21.40;87.70
49821;DHT22;36893;52.520;13.450;2024-03-23T22:09:26;21.30;87.30
49821;DHT22;36893;52.520;13.450;2024-03-23T22:19:28;21.30;87.20
49821;DHT22;36893;52.520;13.450;2024-03-23T22:29:29;21.30;87.00
49821;DHT22;36893;52.520;13.450;2024-03-23T22:39:33;21.30;86.80
49821;DHT22;36893;52.520;13.450;2024-03-23T22:49:33;21.30;86.70
49821;DHT22;36893;52.520;13.450;2024-03-23T22:59:34;21.30;86.60
49821;DHT22;36893;52.520;13.450;2024-03-23T23:09:34;21.30;86.40
49821;DHT22;36893;52.520;13.450;2024-03-23T23:19:34;21.30;86.20
49821;DHT22;36893;52.520;13.450;2024-03-23T23:29:37;21.30;86.10
49821;DHT22;36893;52.520;13.450;2024-03-23T23:39:37;21.30;85.90
49821;DHT22;36893;52.520;13.450;2024-03-23T23:49:38;21.30;85.80
49821;DHT22;36893;52.520;13.450;2024-03-23T23:59:38;21.30;85.60
